Big Bear Station Historical Data
Daily Summary for April 28, 2019 Units:  English    Metric   Both
Next Day »
Daily Weekly Monthly Yearly Custom
  High: Low: Average:
Temperature: 73.2 °F 42.1 °F 55.1 °F
Dew Point: 44.8 °F 28.8 °F 35.5 °F
Humidity: 82% 24% 50%
Wind Speed: 6.8mph 0.0mph 1.7mph
Wind Gust: -999.0mph - -
Wind- - West
Pressure: 23.46 in 23.34 in -
Precipitation: 0.00 in    
Historical Graphs
 
 
Tabular Data for April 28, 2019
Time Temperature Dew Point Pressure Wind Wind Speed Wind Gust Humidity Rainfall Rate (Hourly)
00:04 45.9 °F 34.8 °F 23.46 in Calm   -999.0 mph 65% 0.00 in
00:19 45.3 °F 35.4 °F 23.46 in Calm   -999.0 mph 68% 0.00 in
00:34 45.5 °F 35.9 °F 23.46 in Calm   -999.0 mph 69% 0.00 in
00:49 45.5 °F 35.6 °F 23.45 in Calm   -999.0 mph 68% 0.00 in
01:04 45.7 °F 35.4 °F 23.45 in Calm   -999.0 mph 67% 0.00 in
01:20 46.6 °F 35.1 °F 23.45 in Calm   -999.0 mph 64% 0.00 in
01:35 49.3 °F 36.0 °F 23.45 in North 1.1 mph -999.0 mph 60% 0.00 in
01:51 49.5 °F 36.2 °F 23.45 in Calm   -999.0 mph 60% 0.00 in
02:06 49.6 °F 35.9 °F 23.44 in Calm   -999.0 mph 59% 0.00 in
02:21 49.8 °F 36.0 °F 23.45 in WSW 1.7 mph -999.0 mph 59% 0.00 in
02:36 49.8 °F 36.0 °F 23.44 in Calm   -999.0 mph 59% 0.00 in
02:51 49.3 °F 35.6 °F 23.44 in Calm   -999.0 mph 59% 0.00 in
03:07 49.1 °F 36.2 °F 23.44 in Calm   -999.0 mph 61% 0.00 in
03:22 48.9 °F 36.0 °F 23.44 in Calm   -999.0 mph 61% 0.00 in
03:37 48.4 °F 35.6 °F 23.44 in Calm   -999.0 mph 61% 0.00 in
03:52 48.2 °F 35.0 °F 23.44 in Calm   -999.0 mph 60% 0.00 in
04:08 47.7 °F 34.9 °F 23.44 in Calm   -999.0 mph 61% 0.00 in
04:23 47.5 °F 35.1 °F 23.44 in Calm   -999.0 mph 62% 0.00 in
04:38 47.1 °F 35.2 °F 23.44 in Calm   -999.0 mph 63% 0.00 in
04:53 47.7 °F 34.5 °F 23.43 in Calm   -999.0 mph 60% 0.00 in
05:08 47.3 °F 33.3 °F 23.43 in Calm   -999.0 mph 58% 0.00 in
05:24 47.3 °F 32.8 °F 23.43 in Calm   -999.0 mph 57% 0.00 in
05:39 46.8 °F 32.8 °F 23.43 in Calm   -999.0 mph 58% 0.00 in
05:54 46.2 °F 32.2 °F 23.43 in Calm   -999.0 mph 58% 0.00 in
06:09 44.8 °F 33.8 °F 23.43 in Calm   -999.0 mph 65% 0.00 in
06:24 43.9 °F 34.0 °F 23.43 in Calm   -999.0 mph 68% 0.00 in
06:40 43.0 °F 33.9 °F 23.44 in Calm   -999.0 mph 70% 0.00 in
06:55 42.4 °F 35.0 °F 23.44 in Calm   -999.0 mph 75% 0.00 in
07:10 42.1 °F 36.4 °F 23.45 in Calm   -999.0 mph 80% 0.00 in
07:25 42.1 °F 37.0 °F 23.45 in Calm   -999.0 mph 82% 0.00 in
07:40 42.4 °F 37.0 °F 23.45 in Calm   -999.0 mph 81% 0.00 in
07:56 43.2 °F 37.4 °F 23.45 in Calm   -999.0 mph 80% 0.00 in
08:11 44.2 °F 38.4 °F 23.45 in Calm   -999.0 mph 80% 0.00 in
08:26 46.4 °F 38.6 °F 23.45 in Calm   -999.0 mph 74% 0.00 in
08:41 50.7 °F 39.0 °F 23.45 in NW 2.7 mph -999.0 mph 64% 0.00 in
08:57 54.1 °F 32.7 °F 23.45 in Calm   -999.0 mph 44% 0.00 in
09:12 58.6 °F 28.8 °F 23.45 in NW 6.8 mph -999.0 mph 32% 0.00 in
09:27 60.6 °F 29.8 °F 23.44 in NNW 4.2 mph -999.0 mph 31% 0.00 in
09:42 61.3 °F 30.4 °F 23.45 in NW 2.7 mph -999.0 mph 31% 0.00 in
09:57 63.0 °F 31.9 °F 23.45 in NNW 6.8 mph -999.0 mph 31% 0.00 in
10:13 63.1 °F 33.5 °F 23.45 in North 2.7 mph -999.0 mph 33% 0.00 in
10:28 64.2 °F 31.3 °F 23.45 in Calm   -999.0 mph 29% 0.00 in
10:43 65.7 °F 32.6 °F 23.45 in West 4.2 mph -999.0 mph 29% 0.00 in
10:58 66.7 °F 31.7 °F 23.45 in NW 4.2 mph -999.0 mph 27% 0.00 in
11:14 68.5 °F 33.2 °F 23.45 in Calm   -999.0 mph 27% 0.00 in
11:29 68.7 °F 33.4 °F 23.45 in Calm   -999.0 mph 27% 0.00 in
11:44 69.1 °F 35.5 °F 23.44 in North 5.3 mph -999.0 mph 29% 0.00 in
12:00 68.5 °F 36.7 °F 23.44 in NW 3.7 mph -999.0 mph 31% 0.00 in
12:15 70.7 °F 37.7 °F 23.44 in NW 5.8 mph -999.0 mph 30% 0.00 in
12:30 68.7 °F 40.7 °F 23.43 in WNW 4.2 mph -999.0 mph 36% 0.00 in
12:46 68.2 °F 39.5 °F 23.43 in NNW 4.7 mph -999.0 mph 35% 0.00 in
13:01 67.1 °F 40.6 °F 23.43 in NNE 4.2 mph -999.0 mph 38% 0.00 in
13:16 66.7 °F 39.6 °F 23.42 in NNW 3.7 mph -999.0 mph 37% 0.00 in
13:31 71.2 °F 34.6 °F 23.42 in East 2.2 mph -999.0 mph 26% 0.00 in
13:46 73.2 °F 37.2 °F 23.42 in NNW 5.8 mph -999.0 mph 27% 0.00 in
14:02 71.8 °F 33.1 °F 23.42 in NNE 3.7 mph -999.0 mph 24% 0.00 in
14:17 70.5 °F 36.7 °F 23.41 in NW 2.2 mph -999.0 mph 29% 0.00 in
14:32 70.5 °F 34.9 °F 23.41 in Calm   -999.0 mph 27% 0.00 in
14:48 66.6 °F 35.0 °F 23.41 in SSW 5.8 mph -999.0 mph 31% 0.00 in
15:03 64.2 °F 38.1 °F 23.41 in North 4.7 mph -999.0 mph 38% 0.00 in
15:18 63.1 °F 42.5 °F 23.41 in NW 5.3 mph -999.0 mph 47% 0.00 in
15:33 60.8 °F 43.6 °F 23.42 in NW 4.7 mph -999.0 mph 53% 0.00 in
15:49 58.6 °F 44.8 °F 23.42 in NNW 4.7 mph -999.0 mph 60% 0.00 in
16:04 59.7 °F 42.5 °F 23.41 in NNW 4.2 mph -999.0 mph 53% 0.00 in
16:19 61.0 °F 40.1 °F 23.41 in WNW 4.7 mph -999.0 mph 46% 0.00 in
16:35 63.5 °F 33.9 °F 23.41 in South 1.1 mph -999.0 mph 33% 0.00 in
16:50 61.7 °F 33.0 °F 23.40 in South 2.7 mph -999.0 mph 34% 0.00 in
17:05 61.5 °F 34.3 °F 23.40 in SSW 5.3 mph -999.0 mph 36% 0.00 in
17:20 66.4 °F 37.9 °F 23.40 in SSW 4.7 mph -999.0 mph 35% 0.00 in
17:35 64.0 °F 36.5 °F 23.40 in SW 3.2 mph -999.0 mph 36% 0.00 in
17:51 64.0 °F 37.2 °F 23.39 in SSW 6.8 mph -999.0 mph 37% 0.00 in
18:06 65.5 °F 37.8 °F 23.39 in South 3.7 mph -999.0 mph 36% 0.00 in
18:21 63.1 °F 37.7 °F 23.39 in NNW 4.2 mph -999.0 mph 39% 0.00 in
18:36 60.4 °F 36.6 °F 23.38 in South 2.7 mph -999.0 mph 41% 0.00 in
18:51 58.3 °F 36.5 °F 23.38 in Calm   -999.0 mph 44% 0.00 in
19:07 56.3 °F 34.7 °F 23.37 in South 3.2 mph -999.0 mph 44% 0.00 in
19:22 55.9 °F 35.4 °F 23.37 in South 2.7 mph -999.0 mph 46% 0.00 in
19:38 55.0 °F 34.0 °F 23.37 in Calm   -999.0 mph 45% 0.00 in
19:53 54.1 °F 33.8 °F 23.38 in Calm   -999.0 mph 46% 0.00 in
20:08 53.1 °F 34.4 °F 23.38 in Calm   -999.0 mph 49% 0.00 in
20:23 52.2 °F 34.1 °F 23.38 in Calm   -999.0 mph 50% 0.00 in
20:39 51.3 °F 34.3 °F 23.38 in Calm   -999.0 mph 52% 0.00 in
20:54 50.4 °F 34.4 °F 23.38 in Calm   -999.0 mph 54% 0.00 in
21:10 49.6 °F 34.1 °F 23.38 in Calm   -999.0 mph 55% 0.00 in
21:25 49.1 °F 33.6 °F 23.38 in Calm   -999.0 mph 55% 0.00 in
21:40 48.6 °F 33.6 °F 23.38 in SSE 2.7 mph -999.0 mph 56% 0.00 in
21:55 48.0 °F 33.5 °F 23.37 in SSE 2.7 mph -999.0 mph 57% 0.00 in
22:10 48.0 °F 33.0 °F 23.37 in Calm   -999.0 mph 56% 0.00 in
22:26 49.3 °F 32.4 °F 23.37 in Calm   -999.0 mph 52% 0.00 in
22:41 49.1 °F 35.4 °F 23.36 in Calm   -999.0 mph 59% 0.00 in
22:56 48.6 °F 34.9 °F 23.35 in Calm   -999.0 mph 59% 0.00 in
23:11 48.4 °F 33.4 °F 23.35 in Calm   -999.0 mph 56% 0.00 in
23:26 48.7 °F 33.7 °F 23.35 in Calm   -999.0 mph 56% 0.00 in
23:42 48.6 °F 35.8 °F 23.36 in Calm   -999.0 mph 61% 0.00 in
23:57 48.2 °F 37.4 °F 23.34 in Calm   -999.0 mph 66% 0.00 in
Big Bear CA Weather